Tinsdal — V2AJ2 — position and weather

sailwx.info

Track history (hours):
 
Tides and Currents Weather Stations Pressure Air Temp Water Temp Dewpoint Dewpoint Depression Visibility Wind Speed Wind Dir Waves Ship Positions

Tinsdal

Last reported at 2014-Oct-21 01:25 UTC. Time now 2014-Oct-21 02:11 UTC.
Position N 38°31' W 008°52'.

Length 90 m; draft 4.2 m.

Type: Cargo ship. MMSI: 305573000.

Date/timePositionNaut miles runAvg speedWind from/ knotsBaromVisibWave heightAir tempDewpointWater temp
2014-Oct-21 01:25N 38°31' W 008°52'0 0.0
2014-Oct-21 00:31N 38°31' W 008°52'0 0.0
2014-Oct-20 23:31N 38°31' W 008°52'0 0.0
2014-Oct-20 22:31N 38°31' W 008°52'0 0.0
2014-Oct-20 21:28N 38°31' W 008°52'0 0.0
2014-Oct-20 20:22N 38°31' W 008°52'0 0.0
2014-Oct-20 18:28N 38°31' W 008°52'0 0.0
2014-Oct-20 14:31N 38°31' W 008°52'0 0.0
2014-Oct-20 12:28N 38°31' W 008°52'0 0.0
2014-Oct-20 11:28N 38°31' W 008°52'0 0.0
2014-Oct-20 10:22N 38°31' W 008°52'0 0.0
2014-Oct-20 09:31N 38°31' W 008°52'0 0.0
2014-Oct-20 08:31N 38°31' W 008°52'0 0.0
2014-Oct-20 07:31N 38°31' W 008°52'0 0.0
2014-Oct-20 06:28N 38°31' W 008°52'0 0.0
2014-Oct-20 05:31N 38°31' W 008°52'0 0.0
2014-Oct-20 04:31N 38°31' W 008°52'0 0.0
2014-Oct-20 03:31N 38°31' W 008°52'0 0.0
2014-Oct-20 02:31N 38°31' W 008°52'0 0.0
2014-Oct-20 01:31N 38°31' W 008°52'0 0.0
2014-Oct-20 00:31N 38°31' W 008°52'0 0.0
2014-Oct-19 23:31N 38°31' W 008°52'0 0.0
2014-Oct-19 22:19N 38°31' W 008°52'0 0.0
2014-Oct-19 21:19N 38°31' W 008°52'0 0.0
2014-Oct-19 20:31N 38°31' W 008°52'0 0.0
2014-Oct-19 19:28N 38°31' W 008°52'0 0.0
2014-Oct-19 18:31N 38°31' W 008°52'0 0.0
2014-Oct-19 16:07N 38°31' W 008°52'0 0.0
2014-Oct-19 15:31N 38°31' W 008°52'0 0.0
2014-Oct-19 12:19N 38°31' W 008°52'0 0.0
2014-Oct-19 11:22N 38°31' W 008°52'0 0.0
2014-Oct-19 10:28N 38°31' W 008°52'0 0.0
2014-Oct-19 09:31N 38°31' W 008°52'0 0.0
2014-Oct-19 08:31N 38°31' W 008°52'0 0.0
2014-Oct-19 07:19N 38°31' W 008°52'0 0.0
2014-Oct-19 06:31N 38°31' W 008°52'0 0.0
2014-Oct-19 05:31N 38°31' W 008°52'0 0.0
2014-Oct-19 04:07N 38°31' W 008°52'0 0.0
2014-Oct-19 03:31N 38°31' W 008°52'0 0.0
2014-Oct-19 02:25N 38°31' W 008°52'0 0.0
2014-Oct-19 01:31N 38°31' W 008°52'0 0.0
2014-Oct-19 00:28N 38°31' W 008°52'0 0.0
2014-Oct-18 23:25N 38°31' W 008°52'0 0.0
2014-Oct-18 22:28N 38°31' W 008°52'0 0.0
2014-Oct-18 21:31N 38°31' W 008°52'0 0.0
2014-Oct-18 20:28N 38°31' W 008°52'0 0.0
2014-Oct-18 19:31N 38°31' W 008°52'0 0.0
2014-Oct-18 18:31N 38°31' W 008°52'0 0.0
2014-Oct-18 17:31N 38°31' W 008°52'0 0.0
2014-Oct-18 16:19N 38°31' W 008°52'0 0.0
2014-Oct-18 15:31N 38°31' W 008°52'0 0.0
2014-Oct-18 14:31N 38°31' W 008°52'0 0.0
2014-Oct-18 13:31N 38°31' W 008°52'0 0.0
2014-Oct-18 12:25N 38°31' W 008°52'0 0.0
2014-Oct-18 04:25N 38°31' W 008°52'0 0.0
2014-Oct-18 03:19N 38°31' W 008°52'0 0.0
2014-Oct-18 02:28N 38°31' W 008°52'0 0.0
2014-Oct-18 01:25N 38°31' W 008°52'0 0.0
2014-Oct-17 21:33N 38°31' W 008°52'1 0.5
2014-Oct-17 19:33N 38°31' W 008°54'0 0.0
2014-Oct-17 18:33N 38°31' W 008°54'0 0.0
2014-Oct-17 17:33N 38°31' W 008°54'0 0.0
2014-Oct-17 16:33N 38°31' W 008°54'0 0.0
2014-Oct-17 15:33N 38°31' W 008°54'0 0.0
2014-Oct-17 14:33N 38°31' W 008°54'0 0.0
2014-Oct-17 10:33N 38°31' W 008°54'4 4.4
2014-Oct-17 09:33N 38°28' W 008°57'9 9.1
2014-Oct-17 08:33N 38°23' W 009°07'17 4.4
2014-Oct-17 04:32N 38°40' W 009°06'1 0.1
2014-Oct-16 15:20N 38°40' W 009°04'0 0.0
2014-Oct-16 06:11N 38°40' W 009°05'  
Track history (hours):
 
Tides and Currents Weather Stations Pressure Air Temp Water Temp Dewpoint Dewpoint Depression Visibility Wind Speed Wind Dir Waves Ship Positions

Tinsdal

Last reported at 2014-Oct-21 01:25 UTC. Time now 2014-Oct-21 02:11 UTC.
Position N 38°31' W 008°52'.

Length 90 m; draft 4.2 m.

Type: Cargo ship. MMSI: 305573000.

Date/timePositionNaut miles runAvg speedWind from/ knotsBaromVisibWave heightAir tempDewpointWater temp
2014-Oct-21 01:25N 38°31' W 008°52'0 0.0
2014-Oct-21 00:31N 38°31' W 008°52'0 0.0
2014-Oct-20 23:31N 38°31' W 008°52'0 0.0
2014-Oct-20 22:31N 38°31' W 008°52'0 0.0
2014-Oct-20 21:28N 38°31' W 008°52'0 0.0
2014-Oct-20 20:22N 38°31' W 008°52'0 0.0
2014-Oct-20 18:28N 38°31' W 008°52'0 0.0
2014-Oct-20 14:31N 38°31' W 008°52'0 0.0
2014-Oct-20 12:28N 38°31' W 008°52'0 0.0
2014-Oct-20 11:28N 38°31' W 008°52'0 0.0
2014-Oct-20 10:22N 38°31' W 008°52'0 0.0
2014-Oct-20 09:31N 38°31' W 008°52'0 0.0
2014-Oct-20 08:31N 38°31' W 008°52'0 0.0
2014-Oct-20 07:31N 38°31' W 008°52'0 0.0
2014-Oct-20 06:28N 38°31' W 008°52'0 0.0
2014-Oct-20 05:31N 38°31' W 008°52'0 0.0
2014-Oct-20 04:31N 38°31' W 008°52'0 0.0
2014-Oct-20 03:31N 38°31' W 008°52'0 0.0
2014-Oct-20 02:31N 38°31' W 008°52'0 0.0
2014-Oct-20 01:31N 38°31' W 008°52'0 0.0
2014-Oct-20 00:31N 38°31' W 008°52'0 0.0
2014-Oct-19 23:31N 38°31' W 008°52'0 0.0
2014-Oct-19 22:19N 38°31' W 008°52'0 0.0
2014-Oct-19 21:19N 38°31' W 008°52'0 0.0
2014-Oct-19 20:31N 38°31' W 008°52'0 0.0
2014-Oct-19 19:28N 38°31' W 008°52'0 0.0
2014-Oct-19 18:31N 38°31' W 008°52'0 0.0
2014-Oct-19 16:07N 38°31' W 008°52'0 0.0
2014-Oct-19 15:31N 38°31' W 008°52'0 0.0
2014-Oct-19 12:19N 38°31' W 008°52'0 0.0
2014-Oct-19 11:22N 38°31' W 008°52'0 0.0
2014-Oct-19 10:28N 38°31' W 008°52'0 0.0
2014-Oct-19 09:31N 38°31' W 008°52'0 0.0
2014-Oct-19 08:31N 38°31' W 008°52'0 0.0
2014-Oct-19 07:19N 38°31' W 008°52'0 0.0
2014-Oct-19 06:31N 38°31' W 008°52'0 0.0
2014-Oct-19 05:31N 38°31' W 008°52'0 0.0
2014-Oct-19 04:07N 38°31' W 008°52'0 0.0
2014-Oct-19 03:31N 38°31' W 008°52'0 0.0
2014-Oct-19 02:25N 38°31' W 008°52'0 0.0
2014-Oct-19 01:31N 38°31' W 008°52'0 0.0
2014-Oct-19 00:28N 38°31' W 008°52'0 0.0
2014-Oct-18 23:25N 38°31' W 008°52'0 0.0
2014-Oct-18 22:28N 38°31' W 008°52'0 0.0
2014-Oct-18 21:31N 38°31' W 008°52'0 0.0
2014-Oct-18 20:28N 38°31' W 008°52'0 0.0
2014-Oct-18 19:31N 38°31' W 008°52'0 0.0
2014-Oct-18 18:31N 38°31' W 008°52'0 0.0
2014-Oct-18 17:31N 38°31' W 008°52'0 0.0
2014-Oct-18 16:19N 38°31' W 008°52'0 0.0
2014-Oct-18 15:31N 38°31' W 008°52'0 0.0
2014-Oct-18 14:31N 38°31' W 008°52'0 0.0
2014-Oct-18 13:31N 38°31' W 008°52'0 0.0
2014-Oct-18 12:25N 38°31' W 008°52'0 0.0
2014-Oct-18 04:25N 38°31' W 008°52'0 0.0
2014-Oct-18 03:19N 38°31' W 008°52'0 0.0
2014-Oct-18 02:28N 38°31' W 008°52'0 0.0
2014-Oct-18 01:25N 38°31' W 008°52'0 0.0
2014-Oct-17 21:33N 38°31' W 008°52'1 0.5
2014-Oct-17 19:33N 38°31' W 008°54'0 0.0
2014-Oct-17 18:33N 38°31' W 008°54'0 0.0
2014-Oct-17 17:33N 38°31' W 008°54'0 0.0
2014-Oct-17 16:33N 38°31' W 008°54'0 0.0
2014-Oct-17 15:33N 38°31' W 008°54'0 0.0
2014-Oct-17 14:33N 38°31' W 008°54'0 0.0
2014-Oct-17 10:33N 38°31' W 008°54'4 4.4
2014-Oct-17 09:33N 38°28' W 008°57'9 9.1
2014-Oct-17 08:33N 38°23' W 009°07'17 4.4
2014-Oct-17 04:32N 38°40' W 009°06'1 0.1
2014-Oct-16 15:20N 38°40' W 009°04'0 0.0
2014-Oct-16 06:11N 38°40' W 009°05'  

Dump ship's entire track history